Monroe, NC

9:52 AM EDT en Septiembre 30, 2014 (GMT -0400)
Lake Park | Change Station
CLOSE
Current Station
Estación meteorológica personal
Location: Indian Trail, NC
Altura: 640 ft
Estaciones meteorológicas cercanas

Alt 640 ft 35.09 °N, 80.63 °W | Updated 28 seconds ago

Parcialmente nublado
Parcialmente nublado
74.4 ° F
Sensación térmica 75 ° F
N
1.0
Viento Variable Viento desde NO
Gusts 3.0 mph

Hoy
Alta -- | Baja -- ° F
--% Posibilidad de precipitaciones
Ayer
Alta -- | Baja -- ° F
Precip. -- pul
7:16 AM 7:07 PM
Creciente, 37% visible
Presión 29.96 pul
Visibilidad 5.0 Millas
Nubes Baja 200 ft
Índice de calor 75 ° F
Punto de rocío 68 ° F
Humedad 81%
Precipitaciones 0.00 pul
Espesor de la nieve No disponible.
UV 1 de una escala de 12
Polen 4.60 de una escala de 12
Ozono Buena
PM2.5 Buena
Flu Activity No disponible.
METAR KEQY 301253Z AUTO 24003KT 5SM BR FEW002 17/17 A2995 RMK AO2 SLP146 T01720167

More Conditions Fewer Conditions

Presión 29.96 pul
Visibilidad 5.0 Millas
Nubes Baja 200 ft
Índice de calor 75 ° F
Punto de rocío 68 ° F
Humedad 81%
Precipitaciones 0.00 pul
Espesor de la nieve No disponible.
UV 1 de una escala de 12
Polen 4.60 de una escala de 12
Ozono Buena
PM2.5 Buena
Flu Activity No disponible.
METAR KEQY 301253Z AUTO 24003KT 5SM BR FEW002 17/17 A2995 RMK AO2 SLP146 T01720167

More Conditions Fewer Conditions

10-Day Weather Forecast

Almanac

Astronomía

Sep. 30, 2014 Salida Puesta
Hora real 7:16 AM EDT 7:07 PM EDT
Crepúsculo civil 6:51 AM EDT 7:33 PM EDT
Crepúsculo náutico 6:21 AM EDT 8:02 PM EDT
Crepúsculo astronómico 5:52 AM EDT 8:31 PM EDT
Luna 1:13 PM EDT 11:46 PM EDT
Horas de luz 12h 41m
Horas de luz
11h 51m
Tomorrow will be 2m 10s shorter.
Creciente, 37% of the Moon is Illuminated
Hoy
Creciente
Oct 1
Cuarto creciente
Oct 8
Luna llena
Oct 15
Cuarto menguante
Oct 23
Nueva

Extremos de hoy

Máximos del estado Bajos del estado

Community

WunderPhotos

Upload Photos

1,757,636 ¡fotos cargadas!

Nearby

Calidad del aire

  Calidad del aire Índice AQ Contaminante
Ayer Buena
PM2.5
Ayer Buena
OZONE
Real Buena
PM2.5
Real Buena
OZONE
Martes Moderada
OZONE
Martes Buena
PM2.5
Miércoles Moderada
OZONE
Miércoles Moderada
PM2.5
Jueves Moderada
OZONE
Jueves Moderada
PM2.5

Grosos de nieve

Estación Profundido Altura
No tenemos constancia de nieve nueva.

Actividad de terremotos

Ciudad Distance Mag. Tiempo y dato
No hay informes recientes de la actividad sísmica.
Magnitud mínima muestra es 2,5.

Temperaturas de aguas costeras

Lugar Temperatura
Sin partes meteorológicos de las estaciones

Estaciones meteorológicas cercanas